Time;durP1;ratioP1;P1;durP2;ratioP2;P2;SDS_P1;SDS_P2;PMS_P1;PMS_P2;Temp;Humidity;BMP_temperature;BMP_pressure;BME280_temperature;BME280_humidity;BME280_pressure;Samples;Min_cycle;Max_cycle;Signal;HPM_P1;HPM_P2
2023/06/18 00:01:26;;;;;;;16.17;11.43;;;;;;;-146.58;100.00;69501.63;5029477;28;20120;-65
2023/06/18 00:03:52;;;;;;;12.38;8.88;;;;;;;-146.58;100.00;69501.63;5027662;28;20053;-65
2023/06/18 00:06:17;;;;;;;12.85;10.93;;;;;;;-146.58;100.00;69501.63;5030040;28;20032;-65
2023/06/18 00:08:43;;;;;;;12.85;8.23;;;;;;;-146.58;100.00;69501.63;5027911;28;20095;-65
2023/06/18 00:11:09;;;;;;;13.57;9.85;;;;;;;-146.58;100.00;69501.63;5030083;28;20030;-65
2023/06/18 00:13:34;;;;;;;10.38;8.77;;;;;;;-146.58;100.00;69501.63;5030397;28;20060;-65
2023/06/18 00:16:00;;;;;;;17.23;11.27;;;;;;;-146.58;100.00;69501.63;5033156;28;20097;-65
2023/06/18 00:18:25;;;;;;;10.93;8.15;;;;;;;-146.58;100.00;69501.63;5030860;28;20091;-65
2023/06/18 00:20:50;;;;;;;14.38;10.32;;;;;;;-146.58;100.00;69501.63;5033310;28;20026;-65
2023/06/18 00:23:16;;;;;;;12.70;7.93;;;;;;;-146.58;100.00;69501.63;5031870;28;20048;-65
2023/06/18 00:25:42;;;;;;;14.65;8.27;;;;;;;-146.58;100.00;69501.63;5033307;28;20419;-65
2023/06/18 00:28:07;;;;;;;17.75;8.05;;;;;;;-146.58;100.00;69501.63;5032027;28;20088;-65
2023/06/18 00:30:33;;;;;;;19.02;10.00;;;;;;;-146.58;100.00;69501.63;5032907;28;20069;-65
2023/06/18 00:32:59;;;;;;;16.38;9.43;;;;;;;-146.58;100.00;69501.63;5033251;28;20025;-66
2023/06/18 00:35:24;;;;;;;13.10;9.15;;;;;;;-146.58;100.00;69501.63;5032055;28;20046;-65
2023/06/18 00:37:50;;;;;;;13.05;8.70;;;;;;;-146.58;100.00;69501.63;5032713;28;20025;-65
2023/06/18 00:40:15;;;;;;;12.25;8.50;;;;;;;-146.58;100.00;69501.63;5030358;28;20042;-65
2023/06/18 00:42:41;;;;;;;13.90;10.65;;;;;;;-146.58;100.00;69501.63;5033337;28;20019;-65
2023/06/18 00:45:08;;;;;;;14.18;10.02;;;;;;;-146.58;100.00;69501.63;5031267;28;20461;-65
2023/06/18 00:47:35;;;;;;;16.50;11.02;;;;;;;-146.58;100.00;69501.63;5031672;28;20037;-65
2023/06/18 00:50:03;;;;;;;12.95;9.50;;;;;;;-146.58;100.00;69501.63;5031228;28;20037;-65
2023/06/18 00:52:32;;;;;;;10.40;8.00;;;;;;;-146.58;100.00;69501.63;5032773;28;20079;-66
2023/06/18 00:54:57;;;;;;;10.57;9.45;;;;;;;-146.58;100.00;69501.63;5031468;28;20064;-66
2023/06/18 00:57:23;;;;;;;9.35;6.47;;;;;;;-146.58;100.00;69501.63;5032799;28;20029;-66
2023/06/18 00:59:51;;;;;;;11.77;8.43;;;;;;;-146.58;100.00;69501.63;5030744;28;20103;-66
2023/06/18 01:02:23;;;;;;;14.07;9.25;;;;;;;-146.58;100.00;69501.63;5032763;28;20362;-66
2023/06/18 01:04:53;;;;;;;11.07;7.53;;;;;;;-146.58;100.00;69501.63;5031171;28;20065;-66
2023/06/18 01:07:22;;;;;;;9.02;7.20;;;;;;;-146.58;100.00;69501.63;5031211;28;20060;-66
2023/06/18 01:09:53;;;;;;;8.95;7.13;;;;;;;-146.58;100.00;69501.63;5031302;28;20381;-67
2023/06/18 01:12:27;;;;;;;9.23;7.07;;;;;;;-146.58;100.00;69501.63;5032564;28;20079;-66
2023/06/18 01:14:53;;;;;;;11.32;7.03;;;;;;;-146.58;100.00;69501.63;5030698;28;20044;-66
2023/06/18 01:17:20;;;;;;;9.82;7.40;;;;;;;-146.58;100.00;69501.63;5032696;28;20399;-66
2023/06/18 01:19:56;;;;;;;16.77;7.78;;;;;;;-146.58;100.00;69501.63;5030875;28;20065;-66
2023/06/18 01:22:37;;;;;;;11.68;7.30;;;;;;;-146.58;100.00;69501.63;5032186;28;20472;-66
2023/06/18 01:25:05;;;;;;;8.82;7.53;;;;;;;-146.58;100.00;69501.63;5029671;28;20075;-66
2023/06/18 01:27:33;;;;;;;11.70;6.70;;;;;;;-146.58;100.00;69501.63;5032368;28;20033;-66
2023/06/18 01:30:01;;;;;;;8.98;7.95;;;;;;;-146.58;100.00;69501.63;5030422;28;20034;-66
2023/06/18 01:32:27;;;;;;;17.13;7.05;;;;;;;-146.58;100.00;69501.63;5032441;28;20159;-66
2023/06/18 01:34:57;;;;;;;18.63;11.60;;;;;;;-146.58;100.00;69501.63;5030645;28;20065;-66
2023/06/18 01:37:44;;;;;;;8.70;6.32;;;;;;;-146.58;100.00;69501.63;5032066;28;20388;-67
2023/06/18 01:40:46;;;;;;;12.48;9.45;;;;;;;-146.58;100.00;69501.63;5030420;28;20117;-66
2023/06/18 01:43:17;;;;;;;8.32;7.28;;;;;;;-146.58;100.00;69501.63;5030767;28;20564;-66
2023/06/18 01:46:01;;;;;;;12.48;8.57;;;;;;;-146.58;100.00;69501.63;5031478;28;20026;-66
2023/06/18 01:48:29;;;;;;;9.43;8.43;;;;;;;-146.58;100.00;69501.63;5030499;28;20037;-66
2023/06/18 01:50:56;;;;;;;15.70;8.80;;;;;;;-146.58;100.00;69501.63;5031781;28;20013;-66
2023/06/18 01:53:23;;;;;;;8.43;6.47;;;;;;;-146.58;100.00;69501.63;5030034;28;20045;-66
2023/06/18 01:55:56;;;;;;;12.93;7.45;;;;;;;-146.58;100.00;69501.63;5031699;28;20040;-67
2023/06/18 01:58:22;;;;;;;10.30;7.45;;;;;;;-146.58;100.00;69501.63;5030768;28;21126;-66
2023/06/18 02:00:48;;;;;;;11.73;7.82;;;;;;;-146.58;100.00;69501.63;5031009;28;20709;-66
2023/06/18 02:03:14;;;;;;;11.15;8.07;;;;;;;-146.58;100.00;69501.63;5029865;28;20492;-66
2023/06/18 02:05:39;;;;;;;9.80;7.13;;;;;;;-146.58;100.00;69501.63;5031838;28;20025;-66
2023/06/18 02:08:05;;;;;;;11.20;8.48;;;;;;;-146.58;100.00;69501.63;5029680;28;20676;-66
2023/06/18 02:10:30;;;;;;;11.02;8.05;;;;;;;-146.58;100.00;69501.63;5031531;28;20021;-66
2023/06/18 02:12:55;;;;;;;11.05;9.93;;;;;;;-146.58;100.00;69501.63;5031534;28;20021;-72
2023/06/18 02:15:21;;;;;;;9.38;7.15;;;;;;;-146.58;100.00;69501.63;5029879;28;20702;-66
2023/06/18 02:17:46;;;;;;;9.85;8.77;;;;;;;-146.58;100.00;69501.63;5031085;28;20021;-66
2023/06/18 02:20:12;;;;;;;12.32;8.63;;;;;;;-146.58;100.00;69501.63;5029922;28;20045;-66
2023/06/18 02:22:38;;;;;;;13.07;9.40;;;;;;;-146.58;100.00;69501.63;5030874;28;20029;-66
2023/06/18 02:25:05;;;;;;;13.30;9.10;;;;;;;-146.58;100.00;69501.63;5029631;28;20037;-66
2023/06/18 02:27:30;;;;;;;12.38;11.02;;;;;;;-146.58;100.00;69501.63;5031464;28;20044;-66
2023/06/18 02:29:55;;;;;;;10.90;9.32;;;;;;;-146.58;100.00;69501.63;5029197;28;20496;-66
2023/06/18 02:32:21;;;;;;;10.57;8.98;;;;;;;-146.58;100.00;69501.63;5031146;28;20025;-67
2023/06/18 02:34:46;;;;;;;18.48;9.55;;;;;;;-146.58;100.00;69501.63;5029486;28;20037;-66
2023/06/18 02:37:12;;;;;;;11.18;8.65;;;;;;;-146.58;100.00;69501.63;5030447;28;20379;-67
2023/06/18 02:39:37;;;;;;;13.75;8.85;;;;;;;-146.58;100.00;69501.63;5029477;28;20056;-66
2023/06/18 02:42:03;;;;;;;13.95;9.18;;;;;;;-146.58;100.00;69501.63;5030858;28;20017;-66
2023/06/18 02:44:28;;;;;;;17.52;9.10;;;;;;;-146.58;100.00;69501.63;5029132;28;20041;-66
2023/06/18 02:46:55;;;;;;;13.88;10.55;;;;;;;-146.58;100.00;69501.63;5030942;28;20033;-67
2023/06/18 02:49:20;;;;;;;15.00;10.05;;;;;;;-146.58;100.00;69501.63;5029238;28;20053;-68
2023/06/18 02:51:46;;;;;;;10.38;9.02;;;;;;;-146.58;100.00;69501.63;5030227;28;20021;-67
2023/06/18 02:54:11;;;;;;;10.50;9.43;;;;;;;-146.58;100.00;69501.63;5029135;28;20098;-67
2023/06/18 02:56:36;;;;;;;14.55;9.32;;;;;;;-146.58;100.00;69501.63;5030751;28;20025;-66
2023/06/18 02:59:02;;;;;;;21.48;10.75;;;;;;;-146.58;100.00;69501.63;5028553;28;20041;-66
2023/06/18 03:01:28;;;;;;;11.57;9.35;;;;;;;-146.58;100.00;69501.63;5030487;28;20136;-67
2023/06/18 03:03:53;;;;;;;20.90;10.73;;;;;;;-146.58;100.00;69501.63;5028980;28;20546;-67
2023/06/18 03:06:19;;;;;;;10.85;8.50;;;;;;;-146.58;100.00;69501.63;5030152;28;20029;-67
2023/06/18 03:08:46;;;;;;;13.45;10.98;;;;;;;-146.58;100.00;69501.63;5027636;28;20045;-67
2023/06/18 03:11:11;;;;;;;14.20;10.60;;;;;;;-146.58;100.00;69501.63;5030761;28;20406;-67
2023/06/18 03:13:37;;;;;;;14.73;11.00;;;;;;;-146.58;100.00;69501.63;5028577;28;20056;-67
2023/06/18 03:16:02;;;;;;;16.00;11.75;;;;;;;-146.58;100.00;69501.63;5030232;28;20033;-66
2023/06/18 03:18:27;;;;;;;12.95;10.27;;;;;;;-146.58;100.00;69501.63;5029043;28;20051;-66
2023/06/18 03:20:53;;;;;;;14.75;11.82;;;;;;;-146.58;100.00;69501.63;5029711;28;20013;-67
2023/06/18 03:23:19;;;;;;;19.08;10.93;;;;;;;-146.58;100.00;69501.63;5029052;28;20025;-67
2023/06/18 03:25:45;;;;;;;13.90;10.02;;;;;;;-146.58;100.00;69501.63;5030009;28;20469;-66
2023/06/18 03:28:10;;;;;;;13.30;10.15;;;;;;;-146.58;100.00;69501.63;5028570;28;20025;-66
2023/06/18 03:30:36;;;;;;;15.75;10.35;;;;;;;-146.58;100.00;69501.63;5030165;28;20325;-66
2023/06/18 03:33:02;;;;;;;13.50;9.75;;;;;;;-146.58;100.00;69501.63;5028710;28;20034;-66
2023/06/18 03:35:28;;;;;;;16.45;9.23;;;;;;;-146.58;100.00;69501.63;5029747;28;20029;-66
2023/06/18 03:37:54;;;;;;;13.90;9.50;;;;;;;-146.58;100.00;69501.63;5029951;28;20021;-66
2023/06/18 03:40:19;;;;;;;15.88;10.75;;;;;;;-146.58;100.00;69501.63;5028779;28;20048;-66
2023/06/18 03:42:44;;;;;;;13.80;10.07;;;;;;;-146.58;100.00;69501.63;5029507;28;20144;-66
2023/06/18 03:45:10;;;;;;;12.57;9.88;;;;;;;-146.58;100.00;69501.63;5028566;28;20045;-66
2023/06/18 03:47:35;;;;;;;13.20;9.50;;;;;;;-146.58;100.00;69501.63;5030686;28;20044;-66
2023/06/18 03:50:00;;;;;;;21.75;13.63;;;;;;;-146.58;100.00;69501.63;5031851;28;20082;-67
2023/06/18 03:52:26;;;;;;;15.02;9.65;;;;;;;-146.58;100.00;69501.63;5031278;28;20422;-66
2023/06/18 03:54:52;;;;;;;13.98;11.38;;;;;;;-146.58;100.00;69501.63;5012925;28;20053;-67
2023/06/18 03:57:17;;;;;;;16.73;11.73;;;;;;;-146.58;100.00;69501.63;5013944;28;20473;-67
2023/06/18 03:59:43;;;;;;;15.52;11.60;;;;;;;-146.58;100.00;69501.63;5012770;28;20048;-67
2023/06/18 04:02:08;;;;;;;15.20;9.95;;;;;;;-146.58;100.00;69501.63;5014009;28;20350;-66
2023/06/18 04:04:34;;;;;;;19.20;12.10;;;;;;;-146.58;100.00;69501.63;5013305;28;20042;-66
2023/06/18 04:06:59;;;;;;;14.82;12.82;;;;;;;-146.58;100.00;69501.63;5033432;28;20500;-66
2023/06/18 04:09:24;;;;;;;11.65;9.80;;;;;;;-146.58;100.00;69501.63;5032524;28;20041;-66
2023/06/18 04:11:50;;;;;;;16.15;10.77;;;;;;;-146.58;100.00;69501.63;5032918;28;20025;-66
2023/06/18 04:14:16;;;;;;;13.20;11.90;;;;;;;-146.58;100.00;69501.63;5032537;28;20040;-66
2023/06/18 04:16:41;;;;;;;15.20;10.82;;;;;;;-146.58;100.00;69501.63;5033745;28;20041;-66
2023/06/18 04:19:06;;;;;;;17.55;12.43;;;;;;;-146.58;100.00;69501.63;5032289;28;20044;-66
2023/06/18 04:21:34;;;;;;;13.13;11.50;;;;;;;-146.58;100.00;69501.63;5033127;28;20026;-67
2023/06/18 04:24:00;;;;;;;16.70;11.95;;;;;;;-146.58;100.00;69501.63;5032041;28;20041;-65
2023/06/18 04:26:26;;;;;;;14.98;12.90;;;;;;;-146.58;100.00;69501.63;5033312;28;20029;-65
2023/06/18 04:28:51;;;;;;;22.90;14.13;;;;;;;-146.58;100.00;69501.63;5031536;28;20053;-65
2023/06/18 04:31:16;;;;;;;16.92;10.93;;;;;;;-146.58;100.00;69501.63;5033333;28;20458;-65
2023/06/18 04:33:42;;;;;;;18.60;11.57;;;;;;;-146.58;100.00;69501.63;5031630;28;20040;-65
2023/06/18 04:36:08;;;;;;;15.30;12.45;;;;;;;-146.58;100.00;69501.63;5032601;28;20041;-65
2023/06/18 04:38:34;;;;;;;20.48;13.35;;;;;;;-146.58;100.00;69501.63;5031681;28;20037;-65
2023/06/18 04:40:59;;;;;;;18.55;14.57;;;;;;;-146.58;100.00;69501.63;5032929;28;20464;-71
2023/06/18 04:43:24;;;;;;;14.50;12.02;;;;;;;-146.58;100.00;69501.63;5031444;28;20042;-66
2023/06/18 04:45:51;;;;;;;23.60;13.73;;;;;;;-146.58;100.00;69501.63;5033058;28;20022;-66
2023/06/18 04:48:18;;;;;;;19.80;13.02;;;;;;;-146.58;100.00;69501.63;5031518;28;20503;-67
2023/06/18 04:50:43;;;;;;;18.08;12.30;;;;;;;-146.58;100.00;69501.63;5031791;28;20045;-63
2023/06/18 04:53:08;;;;;;;13.68;12.23;;;;;;;-146.58;100.00;69501.63;5029232;28;20064;-66
2023/06/18 04:55:34;;;;;;;12.85;10.48;;;;;;;-146.58;100.00;69501.63;5026466;28;20022;-66
2023/06/18 04:57:59;;;;;;;13.70;12.25;;;;;;;-146.58;100.00;69501.63;5013618;28;20092;-66
2023/06/18 05:00:26;;;;;;;17.23;14.13;;;;;;;-146.58;100.00;69501.63;5022502;28;20041;-65
2023/06/18 05:02:52;;;;;;;20.73;14.52;;;;;;;-146.58;100.00;69501.63;5028915;28;20037;-65
2023/06/18 05:05:17;;;;;;;19.05;12.50;;;;;;;-146.58;100.00;69501.63;5030808;28;20034;-65
2023/06/18 05:07:43;;;;;;;19.15;12.63;;;;;;;-146.58;100.00;69501.63;5032493;28;20040;-66
2023/06/18 05:10:10;;;;;;;18.42;12.43;;;;;;;-146.58;100.00;69501.63;5030273;28;20419;-65
2023/06/18 05:12:35;;;;;;;16.35;10.85;;;;;;;-146.58;100.00;69501.63;5032318;28;20025;-65
2023/06/18 05:15:01;;;;;;;16.00;11.73;;;;;;;-146.58;100.00;69501.63;5030746;28;20064;-65
2023/06/18 05:17:26;;;;;;;15.23;12.88;;;;;;;-146.58;100.00;69501.63;5030228;28;20029;-65
2023/06/18 05:19:52;;;;;;;13.95;11.82;;;;;;;-146.58;100.00;69501.63;5030077;28;20044;-65
2023/06/18 05:22:17;;;;;;;17.70;13.57;;;;;;;-146.58;100.00;69501.63;5031244;28;20598;-65
2023/06/18 05:24:42;;;;;;;19.08;13.65;;;;;;;-146.58;100.00;69501.63;5029252;28;20424;-65
2023/06/18 05:27:08;;;;;;;22.15;13.68;;;;;;;-146.58;100.00;69501.63;5031341;28;20028;-65
2023/06/18 05:29:33;;;;;;;15.68;11.45;;;;;;;-146.58;100.00;69501.63;5030367;28;20037;-65
2023/06/18 05:31:59;;;;;;;14.57;13.00;;;;;;;-146.58;100.00;69501.63;5030366;28;20026;-65
2023/06/18 05:34:24;;;;;;;18.75;13.38;;;;;;;-146.58;100.00;69501.63;5029838;28;20045;-65
2023/06/18 05:36:49;;;;;;;14.73;11.68;;;;;;;-146.58;100.00;69501.63;5031471;28;20022;-65
2023/06/18 05:39:15;;;;;;;23.25;13.88;;;;;;;-146.58;100.00;69501.63;5029075;28;20048;-65
2023/06/18 05:41:40;;;;;;;17.13;12.13;;;;;;;-146.58;100.00;69501.63;5015772;28;20033;-64
2023/06/18 05:44:05;;;;;;;21.90;13.88;;;;;;;-146.58;100.00;69501.63;5029469;28;20048;-64
2023/06/18 05:46:31;;;;;;;18.38;14.45;;;;;;;-146.58;100.00;69501.63;5030910;28;20033;-63
2023/06/18 05:48:56;;;;;;;13.82;11.38;;;;;;;-146.58;100.00;69501.63;5029012;28;20037;-66
2023/06/18 05:51:22;;;;;;;16.33;12.13;;;;;;;-146.58;100.00;69501.63;5031344;28;20025;-65
2023/06/18 05:53:47;;;;;;;15.00;12.48;;;;;;;28.78;97.66;168114.75;5028494;28;20651;-65
2023/06/18 05:56:12;;;;;;;15.00;12.48;;;;;;;19.70;100.00;165721.91;5030875;28;20025;-66
2023/06/18 05:58:38;;;;;;;17.65;12.55;;;;;;;19.70;100.00;165721.91;5029666;28;20041;-67
2023/06/18 06:01:04;;;;;;;18.88;12.43;;;;;;;-146.58;100.00;69501.63;5028985;28;20021;-65
2023/06/18 06:03:29;;;;;;;16.38;13.88;;;;;;;-146.58;100.00;69501.63;5029170;28;20468;-62
2023/06/18 06:05:55;;;;;;;19.40;13.52;;;;;;;-146.58;100.00;69501.63;5031124;28;20042;-63
2023/06/18 06:08:21;;;;;;;22.35;12.20;;;;;;;-146.58;100.00;69501.63;5029428;28;20048;-62
2023/06/18 06:10:47;;;;;;;18.63;13.02;;;;;;;-146.58;100.00;69501.63;5029175;28;20024;-64
2023/06/18 06:13:12;;;;;;;17.20;14.02;;;;;;;-146.58;100.00;69501.63;5028817;28;20081;-65
2023/06/18 06:15:38;;;;;;;15.52;11.93;;;;;;;-146.58;100.00;69501.63;5030744;28;20025;-65
2023/06/18 06:18:03;;;;;;;18.85;13.15;;;;;;;-146.58;100.00;69501.63;5028248;28;20036;-65
2023/06/18 06:20:29;;;;;;;19.02;13.50;;;;;;;-146.58;100.00;69501.63;5030920;28;20044;-65
2023/06/18 06:22:54;;;;;;;14.80;11.05;;;;;;;-146.58;100.00;69501.63;5030555;28;20025;-65
2023/06/18 06:25:20;;;;;;;15.93;11.70;;;;;;;-146.58;100.00;69501.63;5026628;28;20041;-65
2023/06/18 06:27:45;;;;;;;18.52;12.43;;;;;;;-146.58;100.00;69501.63;5030423;28;20029;-65
2023/06/18 06:30:11;;;;;;;14.65;12.13;;;;;;;-146.58;100.00;69501.63;5029407;28;20038;-65
2023/06/18 06:32:36;;;;;;;14.60;11.55;;;;;;;-146.58;100.00;69501.63;5029562;28;20338;-65
2023/06/18 06:35:03;;;;;;;17.10;12.85;;;;;;;-146.58;100.00;69501.63;5028520;28;20068;-65
2023/06/18 06:37:29;;;;;;;18.35;12.05;;;;;;;-146.58;100.00;69501.63;5030069;28;20541;-65
2023/06/18 06:39:55;;;;;;;22.23;12.90;;;;;;;-146.58;100.00;69501.63;5027174;28;20048;-65
2023/06/18 06:42:20;;;;;;;16.38;11.90;;;;;;;-146.58;100.00;69501.63;5030407;28;20022;-65
2023/06/18 06:44:46;;;;;;;20.48;13.48;;;;;;;-146.58;100.00;69501.63;5028749;28;20045;-65
2023/06/18 06:47:11;;;;;;;16.77;14.45;;;;;;;-146.58;100.00;69501.63;5029399;28;20021;-65
2023/06/18 06:49:36;;;;;;;23.10;14.43;;;;;;;-146.58;100.00;69501.63;5028863;28;20044;-65
2023/06/18 06:52:02;;;;;;;14.75;12.27;;;;;;;-146.58;100.00;69501.63;5029759;28;20033;-65
2023/06/18 06:54:27;;;;;;;13.98;11.00;;;;;;;-146.58;100.00;69501.63;5028099;28;20625;-64
2023/06/18 06:56:53;;;;;;;13.25;11.52;;;;;;;-146.58;100.00;69501.63;5029833;28;20021;-64
2023/06/18 06:59:18;;;;;;;17.52;13.35;;;;;;;-146.58;100.00;69501.63;5028834;28;20555;-64
2023/06/18 07:01:44;;;;;;;13.35;11.48;;;;;;;-146.58;100.00;69501.63;5028907;28;20036;-64
2023/06/18 07:04:10;;;;;;;15.70;11.77;;;;;;;-146.58;100.00;69501.63;5028084;28;20532;-64
2023/06/18 07:06:38;;;;;;;14.77;13.18;;;;;;;-146.58;100.00;69501.63;5027993;28;20047;-64
2023/06/18 07:09:04;;;;;;;16.00;11.93;;;;;;;-146.58;100.00;69501.63;5026863;28;20069;-64
2023/06/18 07:11:29;;;;;;;16.25;12.98;;;;;;;-146.58;100.00;69501.63;5027539;28;20048;-64
2023/06/18 07:13:55;;;;;;;12.93;10.68;;;;;;;-146.58;100.00;69501.63;5025087;28;20041;-64
2023/06/18 07:16:20;;;;;;;19.23;12.88;;;;;;;-146.58;100.00;69501.63;5018763;28;20037;-64
2023/06/18 07:18:45;;;;;;;17.05;11.27;;;;;;;-146.58;100.00;69501.63;5027791;28;20041;-64
2023/06/18 07:21:11;;;;;;;19.83;10.88;;;;;;;-146.58;100.00;69501.63;5029847;28;20476;-64
2023/06/18 07:23:37;;;;;;;13.60;10.55;;;;;;;-146.58;100.00;69501.63;5025551;28;20103;-64
2023/06/18 07:26:03;;;;;;;15.85;11.48;;;;;;;-146.58;100.00;69501.63;5029171;28;20021;-64
2023/06/18 07:28:28;;;;;;;13.45;10.80;;;;;;;-146.58;100.00;69501.63;5027166;28;20508;-64
2023/06/18 07:30:54;;;;;;;18.80;11.07;;;;;;;-146.58;100.00;69501.63;5028604;28;20017;-64
2023/06/18 07:33:20;;;;;;;14.80;11.15;;;;;;;-146.58;100.00;69501.63;5028184;28;20539;-64
2023/06/18 07:35:45;;;;;;;12.18;9.45;;;;;;;-146.58;100.00;69501.63;5029764;28;20033;-64
2023/06/18 07:38:11;;;;;;;14.63;9.30;;;;;;;-146.58;100.00;69501.63;5026670;28;20037;-65
2023/06/18 07:40:38;;;;;;;13.40;8.85;;;;;;;-146.58;100.00;69501.63;5027434;28;20018;-64
2023/06/18 07:43:04;;;;;;;12.23;9.87;;;;;;;-146.58;100.00;69501.63;5023815;28;20036;-64
2023/06/18 07:45:29;;;;;;;10.65;8.63;;;;;;;-146.58;100.00;69501.63;5028541;28;20022;-72
2023/06/18 07:47:54;;;;;;;13.07;8.45;;;;;;;-146.58;100.00;69501.63;5029247;28;20408;-64
2023/06/18 07:50:20;;;;;;;12.77;7.47;;;;;;;-146.58;100.00;69501.63;5027960;28;20091;-64
2023/06/18 07:52:45;;;;;;;8.48;7.57;;;;;;;-146.58;100.00;69501.63;5028486;28;20021;-64
2023/06/18 07:55:10;;;;;;;10.45;8.18;;;;;;;-146.58;100.00;69501.63;5027837;28;20041;-64
2023/06/18 07:57:36;;;;;;;9.07;7.75;;;;;;;-146.58;100.00;69501.63;5029312;28;20022;-64
2023/06/18 08:00:02;;;;;;;10.07;8.30;;;;;;;-146.58;100.00;69501.63;5026317;28;20060;-64
2023/06/18 08:02:27;;;;;;;11.25;7.45;;;;;;;-146.58;100.00;69501.63;5027489;28;20661;-64
2023/06/18 08:04:53;;;;;;;14.18;8.25;;;;;;;-146.58;100.00;69501.63;5026663;28;20042;-64
2023/06/18 08:07:19;;;;;;;10.63;8.75;;;;;;;-146.58;100.00;69501.63;5028390;28;20116;-64
2023/06/18 08:09:45;;;;;;;8.80;7.55;;;;;;;-146.58;100.00;69501.63;5027284;28;20041;-64
2023/06/18 08:12:11;;;;;;;9.05;8.15;;;;;;;-146.58;100.00;69501.63;5029317;28;20480;-65
2023/06/18 08:14:37;;;;;;;10.05;7.68;;;;;;;-146.58;100.00;69501.63;5027252;28;20065;-64
2023/06/18 08:17:02;;;;;;;10.50;7.55;;;;;;;-146.58;100.00;69501.63;5027167;28;20025;-64
2023/06/18 08:19:28;;;;;;;10.15;7.32;;;;;;;-146.58;100.00;69501.63;5026184;28;20049;-64
2023/06/18 08:21:53;;;;;;;8.15;7.35;;;;;;;-146.58;100.00;69501.63;5028295;28;20096;-64
2023/06/18 08:24:18;;;;;;;14.02;8.38;;;;;;;-146.58;100.00;69501.63;5026273;28;20041;-64
2023/06/18 08:26:44;;;;;;;9.57;7.88;;;;;;;-146.58;100.00;69501.63;5027169;28;20056;-64
2023/06/18 08:29:09;;;;;;;7.97;7.18;;;;;;;-146.58;100.00;69501.63;5026840;28;20071;-64
2023/06/18 08:31:35;;;;;;;15.52;7.78;;;;;;;-146.58;100.00;69501.63;5028432;28;20034;-64
2023/06/18 08:34:00;;;;;;;8.48;7.55;;;;;;;-146.58;100.00;69501.63;5028011;28;20037;-64
2023/06/18 08:36:26;;;;;;;7.32;6.47;;;;;;;-146.58;100.00;69501.63;5032360;28;20032;-64
2023/06/18 08:38:51;;;;;;;8.30;6.30;;;;;;;-146.58;100.00;69501.63;5030983;28;20034;-65
2023/06/18 08:41:17;;;;;;;11.77;6.13;;;;;;;-146.58;100.00;69501.63;5032768;28;20045;-64
2023/06/18 08:43:42;;;;;;;8.52;6.65;;;;;;;-146.58;100.00;69501.63;5031444;28;20038;-64
2023/06/18 08:46:15;;;;;;;8.23;7.10;;;;;;;-146.58;100.00;69501.63;5032416;28;20087;-64
2023/06/18 08:48:43;;;;;;;7.03;6.40;;;;;;;-146.58;100.00;69501.63;5031565;28;20119;-65
2023/06/18 08:51:09;;;;;;;7.82;6.50;;;;;;;-146.58;100.00;69501.63;5032883;28;20025;-64
2023/06/18 08:54:02;;;;;;;8.10;6.90;;;;;;;-146.58;100.00;69501.63;5031115;28;20039;-64
2023/06/18 08:56:29;;;;;;;9.75;8.30;;;;;;;-146.58;100.00;69501.63;5030293;28;20563;-64
2023/06/18 08:58:58;;;;;;;7.75;6.57;;;;;;;-146.58;100.00;69501.63;5031167;28;20037;-65
2023/06/18 09:01:25;;;;;;;7.53;6.82;;;;;;;-146.58;100.00;69501.63;5032050;28;20060;-64
2023/06/18 09:03:51;;;;;;;7.00;6.05;;;;;;;-146.58;100.00;69501.63;5030894;28;20447;-64
2023/06/18 09:06:18;;;;;;;7.25;6.55;;;;;;;-146.58;100.00;69501.63;5032552;28;20021;-64
2023/06/18 09:08:43;;;;;;;7.07;6.03;;;;;;;-146.58;100.00;69501.63;5029125;28;20458;-64
2023/06/18 09:11:09;;;;;;;13.07;8.18;;;;;;;-146.58;100.00;69501.63;5032897;28;20022;-64
2023/06/18 09:13:40;;;;;;;8.55;5.93;;;;;;;-146.58;100.00;69501.63;5031146;28;20574;-64
2023/06/18 09:16:05;;;;;;;6.88;6.20;;;;;;;-146.58;100.00;69501.63;5031856;28;20060;-65
2023/06/18 09:18:31;;;;;;;11.73;5.70;;;;;;;-146.58;100.00;69501.63;5030903;28;20033;-65
2023/06/18 09:20:56;;;;;;;7.65;6.57;;;;;;;-146.58;100.00;69501.63;5031962;28;20033;-64
2023/06/18 09:23:21;;;;;;;10.55;5.85;;;;;;;-146.58;100.00;69501.63;5030458;28;20519;-65
2023/06/18 09:25:54;;;;;;;5.82;5.22;;;;;;;-146.58;100.00;69501.63;5032236;28;20032;-64
2023/06/18 09:28:20;;;;;;;13.75;6.13;;;;;;;-146.58;100.00;69501.63;5030918;28;20528;-65
2023/06/18 09:30:59;;;;;;;8.80;7.15;;;;;;;-146.58;100.00;69501.63;5031439;28;20021;-64
2023/06/18 09:33:31;;;;;;;8.20;5.72;;;;;;;-146.58;100.00;69501.63;5030685;28;20055;-64
2023/06/18 09:36:01;;;;;;;11.32;6.10;;;;;;;-146.58;100.00;69501.63;5031922;28;20025;-64
2023/06/18 09:38:39;;;;;;;10.35;6.38;;;;;;;-146.58;100.00;69501.63;5030525;28;20034;-64
2023/06/18 09:41:16;;;;;;;6.28;5.75;;;;;;;-146.58;100.00;69501.63;5031558;28;20025;-64
2023/06/18 09:43:45;;;;;;;8.80;5.03;;;;;;;-146.58;100.00;69501.63;5030171;28;20038;-64
2023/06/18 09:46:11;;;;;;;9.68;5.68;;;;;;;-146.58;100.00;69501.63;5030304;28;20048;-65
2023/06/18 09:48:42;;;;;;;8.43;5.95;;;;;;;-146.58;100.00;69501.63;5030308;28;20041;-64
2023/06/18 09:51:07;;;;;;;7.22;5.72;;;;;;;-146.58;100.00;69501.63;5031703;28;20148;-64
2023/06/18 09:53:33;;;;;;;5.80;5.22;;;;;;;-146.58;100.00;69501.63;5030167;28;20116;-65
2023/06/18 09:56:16;;;;;;;6.15;5.55;;;;;;;-146.58;100.00;69501.63;5031458;28;20133;-64
2023/06/18 09:58:47;;;;;;;7.78;5.78;;;;;;;-146.58;100.00;69501.63;5029841;28;20037;-64
2023/06/18 10:01:13;;;;;;;7.25;5.78;;;;;;;-146.58;100.00;69501.63;5030575;28;20032;-64
2023/06/18 10:03:40;;;;;;;12.82;6.40;;;;;;;-146.58;100.00;69501.63;5029800;28;20114;-64
2023/06/18 10:06:22;;;;;;;11.27;6.65;;;;;;;-146.58;100.00;69501.63;5031037;28;20033;-65
2023/06/18 10:08:50;;;;;;;12.25;6.38;;;;;;;-146.58;100.00;69501.63;5029456;28;20038;-64
2023/06/18 10:11:17;;;;;;;7.00;6.20;;;;;;;-146.58;100.00;69501.63;5031425;28;20483;-64
2023/06/18 10:13:52;;;;;;;10.50;6.45;;;;;;;-146.58;100.00;69501.63;5029449;28;20044;-64
2023/06/18 10:16:20;;;;;;;9.45;6.75;;;;;;;-146.58;100.00;69501.63;5030918;28;20358;-64
2023/06/18 10:18:54;;;;;;;10.43;6.57;;;;;;;-146.58;100.00;69501.63;5029646;28;20037;-67
2023/06/18 10:21:22;;;;;;;9.02;6.25;;;;;;;-146.58;100.00;69501.63;5030946;28;20029;-73
2023/06/18 10:23:53;;;;;;;12.00;6.10;;;;;;;-146.58;100.00;69501.63;5029032;28;20033;-64
2023/06/18 10:26:20;;;;;;;7.45;6.28;;;;;;;-146.58;100.00;69501.63;5031117;28;20033;-64
2023/06/18 10:28:46;;;;;;;12.55;5.75;;;;;;;-146.58;100.00;69501.63;5029150;28;20094;-63
2023/06/18 10:31:12;;;;;;;11.63;7.10;;;;;;;-146.58;100.00;69501.63;5030787;28;20109;-65
2023/06/18 10:33:37;;;;;;;13.50;6.57;;;;;;;-146.58;100.00;69501.63;5029477;28;20116;-64
2023/06/18 10:36:03;;;;;;;8.80;6.22;;;;;;;-146.58;100.00;69501.63;5030676;28;20033;-64
2023/06/18 10:38:29;;;;;;;11.80;6.25;;;;;;;-146.58;100.00;69501.63;5029087;28;20103;-65
2023/06/18 10:41:17;;;;;;;8.18;6.55;;;;;;;-146.58;100.00;69501.63;5030470;28;20104;-64
2023/06/18 10:43:42;;;;;;;8.45;6.35;;;;;;;-146.58;100.00;69501.63;5027517;28;20123;-64
2023/06/18 10:46:12;;;;;;;13.57;6.10;;;;;;;-146.58;100.00;69501.63;5030172;28;20443;-64
2023/06/18 10:48:38;;;;;;;10.98;6.50;;;;;;;-146.58;100.00;69501.63;5029148;28;20048;-65
2023/06/18 10:51:14;;;;;;;9.45;6.25;;;;;;;-146.58;100.00;69501.63;5030645;28;20017;-64
2023/06/18 10:53:40;;;;;;;6.30;5.70;;;;;;;-146.58;100.00;69501.63;5027926;28;20048;-65
2023/06/18 10:56:06;;;;;;;7.07;6.38;;;;;;;-146.58;100.00;69501.63;5029947;28;20216;-63
2023/06/18 10:58:33;;;;;;;9.02;7.32;;;;;;;-146.58;100.00;69501.63;5028762;28;20042;-64